CheckWX is a tool to help pilots better visualize weather data.  It is not intended as a substitute for an official pre-flight weather briefing.

17:00:05 UTC

SARI TAF
Cataratas Del Iguazú International Airport
Puerto Iguazu, Argentina
TAF SARI 231100Z 2312/2412 02005KT CAVOK TX29/2318Z TN18/2409Z BECMG 2315/2316 9999 SCT030

Mar-23@
12:00 UTC

Mar-23 @ 12:00 UTC

Mar-23@
15:00 UTC

Mar-23 @ 15:00 UTC

TAF SARI 231100Z 2312/2412 02005KT CAVOK TX29/2318Z TN18/2409Z

Expired

Wind
  • 020° at 5 KTS
Cloud Levels
  • No significant clouds

Mar-23@
15:00 UTC

Mar-23 @ 15:00 UTC

Mar-24@
12:00 UTC

Mar-24 @ 12:00 UTC

BECMG 2315/2316 9999 SCT030

Becoming

Becoming Conditions expected by Sat, Mar 23, 2019 @ 16:00 UTC

Wind
  • 020° at 5 KTS
Cloud Levels
  • Scattered at 3,000' AGL